Time;durP1;ratioP1;P1;durP2;ratioP2;P2;SDS_P1;SDS_P2;PMS_P1;PMS_P2;Temp;Humidity;BMP_temperature;BMP_pressure;BME280_temperature;BME280_humidity;BME280_pressure;Samples;Min_cycle;Max_cycle;Signal;HPM_P1;HPM_P2
2023/07/04 00:01:04;;;;;;;7.45;1.98;;;14.20;99.90;;;;;;4876402;29;20574;-76
2023/07/04 00:03:30;;;;;;;15.30;2.80;;;14.10;99.90;;;;;;4872991;29;20186;-75
2023/07/04 00:05:56;;;;;;;11.65;2.42;;;14.10;99.90;;;;;;4865838;29;20186;-76
2023/07/04 00:08:26;;;;;;;13.10;2.50;;;14.10;99.90;;;;;;4876372;29;20196;-76
2023/07/04 00:10:56;;;;;;;15.68;2.60;;;14.10;99.90;;;;;;4866670;29;20222;-75
2023/07/04 00:13:22;;;;;;;8.20;2.17;;;14.10;99.90;;;;;;4870067;29;20258;-77
2023/07/04 00:15:51;;;;;;;10.40;2.10;;;14.10;99.90;;;;;;4871623;29;20200;-76
2023/07/04 00:18:20;;;;;;;10.52;2.55;;;14.10;99.90;;;;;;4861854;29;20197;-77
2023/07/04 00:20:53;;;;;;;8.10;2.08;;;14.10;99.90;;;;;;4852534;29;20213;-77
2023/07/04 00:23:20;;;;;;;12.18;2.10;;;14.10;99.90;;;;;;4867054;29;20554;-76
2023/07/04 00:25:46;;;;;;;7.88;1.92;;;14.10;99.90;;;;;;4865925;29;20189;-77
2023/07/04 00:28:12;;;;;;;7.28;1.88;;;14.00;99.90;;;;;;4863032;29;20232;-76
2023/07/04 00:30:38;;;;;;;11.80;2.20;;;14.00;99.90;;;;;;4867938;29;20228;-76
2023/07/04 00:33:03;;;;;;;8.60;2.40;;;14.00;99.90;;;;;;4870469;29;20185;-80
2023/07/04 00:35:29;;;;;;;14.38;2.30;;;14.00;99.90;;;;;;4859629;29;20213;-77
2023/07/04 00:37:56;;;;;;;9.10;1.77;;;14.00;99.90;;;;;;4866781;29;20231;-77
2023/07/04 00:40:23;;;;;;;10.73;2.00;;;14.00;99.90;;;;;;4867898;29;20189;-76
2023/07/04 00:42:52;;;;;;;11.13;2.33;;;14.00;99.90;;;;;;4866541;29;20204;-76
2023/07/04 00:45:21;;;;;;;8.45;1.80;;;13.90;99.90;;;;;;4861391;29;20225;-76
2023/07/04 00:47:53;;;;;;;9.50;2.17;;;13.90;99.90;;;;;;4864633;29;20556;-76
2023/07/04 00:50:31;;;;;;;10.95;2.10;;;13.90;99.90;;;;;;4864673;29;20224;-76
2023/07/04 00:53:02;;;;;;;7.88;2.45;;;13.90;99.90;;;;;;4866237;29;20205;-77
2023/07/04 00:55:30;;;;;;;10.20;2.30;;;13.90;99.90;;;;;;4864929;29;20177;-76
2023/07/04 00:57:56;;;;;;;8.95;2.20;;;13.90;99.90;;;;;;4860941;29;20190;-76
2023/07/04 01:00:23;;;;;;;11.18;2.22;;;13.90;99.90;;;;;;4855151;29;20276;-76
2023/07/04 01:02:52;;;;;;;10.32;2.08;;;13.90;99.90;;;;;;4865461;29;20247;-76
2023/07/04 01:05:29;;;;;;;11.15;2.30;;;13.90;99.90;;;;;;4882592;29;20268;-76
2023/07/04 01:08:16;;;;;;;6.72;2.13;;;13.80;99.90;;;;;;4867263;29;20207;-81
2023/07/04 01:10:44;;;;;;;8.90;2.22;;;13.80;99.90;;;;;;4867291;29;20378;-80
2023/07/04 01:13:34;;;;;;;14.95;2.85;;;13.80;99.90;;;;;;4865939;29;20194;-77
2023/07/04 01:16:12;;;;;;;14.02;2.45;;;13.80;99.90;;;;;;4871885;29;20218;-76
2023/07/04 01:18:41;;;;;;;11.52;2.10;;;13.80;99.90;;;;;;4869300;29;20240;-77
2023/07/04 01:21:10;;;;;;;11.23;2.17;;;13.80;99.90;;;;;;4873494;29;20190;-78
2023/07/04 01:23:54;;;;;;;8.27;2.40;;;13.80;99.90;;;;;;4878233;29;20541;-76
2023/07/04 01:26:30;;;;;;;7.20;2.15;;;13.80;99.90;;;;;;4872737;29;20188;-77
2023/07/04 01:28:57;;;;;;;9.23;2.42;;;13.80;99.90;;;;;;4873254;29;20267;-76
2023/07/04 01:31:25;;;;;;;9.55;2.30;;;13.80;99.90;;;;;;4873415;29;20193;-77
2023/07/04 01:33:52;;;;;;;8.73;1.75;;;13.80;99.90;;;;;;4869615;29;20193;-76
2023/07/04 01:36:22;;;;;;;9.00;1.80;;;13.80;99.90;;;;;;4871174;29;20277;-77
2023/07/04 01:38:49;;;;;;;10.25;2.13;;;13.80;99.90;;;;;;4870951;29;20222;-76
2023/07/04 01:41:15;;;;;;;12.05;2.08;;;13.80;99.90;;;;;;4868018;29;20654;-76
2023/07/04 01:43:43;;;;;;;8.00;2.20;;;13.80;99.90;;;;;;4890561;29;20273;-76
2023/07/04 01:46:09;;;;;;;7.57;1.75;;;13.80;99.90;;;;;;4875814;29;20328;-76
2023/07/04 01:48:35;;;;;;;8.20;2.10;;;13.80;99.90;;;;;;4875146;29;20722;-76
2023/07/04 01:51:00;;;;;;;8.07;1.88;;;13.80;99.90;;;;;;4875359;29;20240;-76
2023/07/04 01:53:26;;;;;;;11.35;1.80;;;13.80;99.90;;;;;;4876068;29;20257;-75
2023/07/04 01:55:52;;;;;;;9.32;2.40;;;13.80;99.90;;;;;;4864279;29;20190;-77
2023/07/04 01:58:18;;;;;;;8.88;2.22;;;13.80;99.90;;;;;;4888119;29;20224;-76
2023/07/04 02:00:44;;;;;;;9.20;2.17;;;13.80;99.90;;;;;;4876313;29;20193;-77
2023/07/04 02:03:09;;;;;;;6.45;1.83;;;13.80;99.90;;;;;;4871492;29;20194;-79
2023/07/04 02:05:35;;;;;;;6.35;2.35;;;13.80;99.90;;;;;;4866792;29;20186;-77
2023/07/04 02:08:02;;;;;;;9.60;2.28;;;13.80;99.90;;;;;;4890384;29;20212;-81
2023/07/04 02:10:28;;;;;;;6.10;2.13;;;13.80;99.90;;;;;;4876487;29;20241;-76
2023/07/04 02:12:53;;;;;;;5.82;2.13;;;13.70;99.90;;;;;;4867566;29;20235;-75
2023/07/04 02:15:19;;;;;;;9.63;2.20;;;13.70;99.90;;;;;;4890455;29;20269;-76
2023/07/04 02:17:45;;;;;;;6.07;1.90;;;13.70;99.90;;;;;;4870830;29;20682;-76
2023/07/04 02:20:11;;;;;;;6.22;2.00;;;13.70;99.90;;;;;;4873750;29;20196;-75
2023/07/04 02:22:40;;;;;;;9.95;2.22;;;13.70;99.90;;;;;;4868367;29;20193;-76
2023/07/04 02:25:07;;;;;;;6.25;2.13;;;13.70;99.90;;;;;;4863253;29;20194;-77
2023/07/04 02:27:33;;;;;;;7.93;2.65;;;13.70;99.90;;;;;;4877327;29;20246;-76
2023/07/04 02:30:01;;;;;;;10.80;2.10;;;13.80;99.90;;;;;;4874640;29;20220;-78
2023/07/04 02:32:27;;;;;;;10.25;2.30;;;13.80;99.90;;;;;;4859800;29;20193;-78
2023/07/04 02:34:53;;;;;;;7.85;1.90;;;13.80;99.90;;;;;;4873695;29;20245;-76
2023/07/04 02:37:19;;;;;;;6.55;2.40;;;13.80;99.90;;;;;;4873026;29;20643;-78
2023/07/04 02:39:44;;;;;;;6.50;2.20;;;13.80;99.90;;;;;;4875496;29;20654;-78
2023/07/04 02:42:10;;;;;;;9.02;2.22;;;13.80;99.90;;;;;;4876964;29;20189;-77
2023/07/04 02:44:37;;;;;;;9.52;2.55;;;13.80;99.90;;;;;;4872770;29;20256;-77
2023/07/04 02:47:05;;;;;;;11.27;2.58;;;13.80;99.90;;;;;;4865765;29;20190;-78
2023/07/04 02:49:31;;;;;;;7.25;2.78;;;13.80;99.90;;;;;;4874484;29;20209;-77
2023/07/04 02:51:58;;;;;;;10.48;2.50;;;13.80;99.90;;;;;;4858107;29;20194;-77
2023/07/04 02:54:24;;;;;;;6.65;2.10;;;13.80;99.90;;;;;;4873069;29;20204;-77
2023/07/04 02:56:50;;;;;;;7.32;2.08;;;13.80;99.90;;;;;;4873518;29;20220;-77
2023/07/04 02:59:17;;;;;;;6.65;2.20;;;13.80;99.90;;;;;;4888972;29;20201;-77
2023/07/04 03:01:44;;;;;;;8.13;2.50;;;13.90;99.90;;;;;;4857245;29;20194;-77
2023/07/04 03:04:11;;;;;;;9.57;2.60;;;13.80;99.90;;;;;;4872647;29;20257;-77
2023/07/04 03:06:37;;;;;;;9.02;2.50;;;13.80;99.90;;;;;;4870943;29;20277;-77
2023/07/04 03:09:03;;;;;;;7.95;2.53;;;13.90;99.90;;;;;;4871423;29;20593;-78
2023/07/04 03:11:29;;;;;;;6.97;2.67;;;13.80;99.90;;;;;;4874315;29;20687;-76
2023/07/04 03:13:57;;;;;;;6.30;2.42;;;13.80;99.90;;;;;;4869545;29;20193;-77
2023/07/04 03:16:23;;;;;;;10.18;2.58;;;13.80;99.90;;;;;;4875853;29;20313;-77
2023/07/04 03:18:49;;;;;;;8.45;2.50;;;13.80;99.90;;;;;;4876758;29;20189;-77
2023/07/04 03:21:15;;;;;;;5.25;2.30;;;13.90;99.90;;;;;;4881201;29;20209;-78
2023/07/04 03:23:42;;;;;;;8.23;2.60;;;13.80;99.90;;;;;;4872852;29;20205;-77
2023/07/04 03:26:09;;;;;;;8.75;2.53;;;13.80;99.90;;;;;;4864497;29;20212;-77
2023/07/04 03:28:35;;;;;;;3.80;2.33;;;13.80;99.90;;;;;;4860546;29;20189;-78
2023/07/04 03:31:01;;;;;;;5.05;2.33;;;13.80;99.90;;;;;;4856529;29;20225;-77
2023/07/04 03:33:30;;;;;;;7.45;2.75;;;13.80;99.90;;;;;;4869076;29;20292;-77
2023/07/04 03:35:57;;;;;;;7.30;2.20;;;13.80;99.90;;;;;;4866954;29;20189;-79
2023/07/04 03:38:24;;;;;;;9.07;2.78;;;13.80;99.90;;;;;;4874344;29;20189;-77
2023/07/04 03:40:51;;;;;;;5.70;2.00;;;13.80;99.90;;;;;;4866204;29;20737;-75
2023/07/04 03:43:17;;;;;;;6.55;1.88;;;13.80;99.90;;;;;;4876090;29;20288;-76
2023/07/04 03:45:46;;;;;;;6.90;2.20;;;13.80;99.90;;;;;;4866053;29;20293;-77
2023/07/04 03:48:13;;;;;;;5.40;1.90;;;13.80;99.90;;;;;;4872139;29;20190;-76
2023/07/04 03:50:39;;;;;;;6.25;1.85;;;13.80;99.90;;;;;;4869472;29;20687;-76
2023/07/04 03:53:04;;;;;;;8.85;2.05;;;13.80;99.90;;;;;;4865243;29;20205;-76
2023/07/04 03:55:30;;;;;;;5.28;1.65;;;13.80;99.90;;;;;;4864030;29;20241;-76
2023/07/04 03:57:56;;;;;;;9.82;1.70;;;13.80;99.90;;;;;;4868576;29;20559;-79
2023/07/04 04:00:22;;;;;;;4.07;1.70;;;13.80;99.90;;;;;;4867863;29;20914;-76
2023/07/04 04:02:54;;;;;;;4.20;1.75;;;13.80;99.90;;;;;;4870605;29;20202;-76
2023/07/04 04:05:20;;;;;;;9.18;2.00;;;13.80;99.90;;;;;;4865232;29;20190;-76
2023/07/04 04:07:48;;;;;;;6.10;1.58;;;13.80;99.90;;;;;;4871866;29;20259;-76
2023/07/04 04:10:18;;;;;;;3.80;1.60;;;13.80;99.90;;;;;;4867910;29;20218;-76
2023/07/04 04:12:43;;;;;;;5.22;1.63;;;13.80;99.90;;;;;;4869897;29;20190;-78
2023/07/04 04:15:10;;;;;;;4.00;1.60;;;13.80;99.90;;;;;;4870965;29;20192;-76
2023/07/04 04:17:36;;;;;;;5.38;1.55;;;13.80;99.90;;;;;;4870725;29;20190;-76
2023/07/04 04:20:06;;;;;;;6.32;2.00;;;13.80;99.90;;;;;;4874903;29;20618;-76
2023/07/04 04:22:33;;;;;;;6.45;2.00;;;13.80;99.90;;;;;;4873491;29;20700;-76
2023/07/04 04:24:58;;;;;;;4.82;1.45;;;13.80;99.90;;;;;;4872006;29;20186;-76
2023/07/04 04:27:30;;;;;;;6.50;1.50;;;13.90;99.90;;;;;;4869887;29;20198;-76
2023/07/04 04:29:57;;;;;;;6.82;2.17;;;13.80;99.90;;;;;;4870389;29;20229;-77
2023/07/04 04:32:22;;;;;;;7.25;1.95;;;13.90;99.90;;;;;;4873696;29;20292;-76
2023/07/04 04:34:48;;;;;;;7.25;2.10;;;13.90;99.90;;;;;;4870689;29;20662;-77
2023/07/04 04:37:15;;;;;;;7.00;1.80;;;13.90;99.90;;;;;;4868408;29;20194;-77
2023/07/04 04:39:44;;;;;;;9.23;2.30;;;13.90;99.90;;;;;;4879363;29;20194;-81
2023/07/04 04:42:14;;;;;;;4.53;2.00;;;13.90;99.90;;;;;;4866414;29;20194;-76
2023/07/04 04:44:40;;;;;;;5.57;2.25;;;13.90;99.90;;;;;;4864647;29;20284;-75
2023/07/04 04:47:07;;;;;;;4.45;1.83;;;14.00;99.90;;;;;;4866044;29;20198;-77
2023/07/04 04:49:33;;;;;;;6.78;2.53;;;14.00;99.90;;;;;;4872092;29;20244;-78
2023/07/04 04:51:58;;;;;;;4.55;2.30;;;14.00;99.90;;;;;;4868034;29;20196;-77
2023/07/04 04:54:25;;;;;;;7.15;2.20;;;14.00;99.90;;;;;;4867595;29;20203;-77
2023/07/04 04:56:51;;;;;;;5.63;2.08;;;14.00;99.90;;;;;;4866820;29;20285;-76
2023/07/04 04:59:17;;;;;;;6.63;2.33;;;14.10;99.90;;;;;;4867133;29;20293;-83
2023/07/04 05:01:45;;;;;;;12.25;2.38;;;14.10;99.90;;;;;;4871931;29;20184;-78
2023/07/04 05:04:10;;;;;;;7.32;2.40;;;14.10;99.90;;;;;;4870497;29;20639;-76
2023/07/04 05:06:36;;;;;;;8.60;2.42;;;14.10;99.90;;;;;;4870841;29;20202;-77
2023/07/04 05:09:04;;;;;;;5.47;2.22;;;14.10;99.90;;;;;;4873025;29;20225;-76
2023/07/04 05:11:32;;;;;;;8.73;2.40;;;14.20;99.90;;;;;;4868712;29;20596;-77
2023/07/04 05:13:58;;;;;;;5.60;2.40;;;14.20;99.90;;;;;;4863756;29;20192;-76
2023/07/04 05:16:23;;;;;;;10.45;2.80;;;14.20;99.90;;;;;;4868681;29;20205;-80
2023/07/04 05:18:51;;;;;;;8.80;2.55;;;14.20;99.90;;;;;;4867412;29;20189;-81
2023/07/04 05:21:20;;;;;;;8.90;2.70;;;14.30;99.90;;;;;;4864170;29;20182;-77
2023/07/04 05:23:47;;;;;;;8.60;2.97;;;14.30;99.90;;;;;;4868541;29;20941;-79
2023/07/04 05:26:18;;;;;;;8.55;2.72;;;14.30;99.90;;;;;;4867309;29;20272;-77
2023/07/04 05:28:45;;;;;;;9.85;2.97;;;14.30;99.90;;;;;;4863345;29;20181;-78
2023/07/04 05:31:14;;;;;;;7.18;2.75;;;14.40;99.90;;;;;;4869771;29;20192;-78
2023/07/04 05:33:40;;;;;;;13.10;3.22;;;14.40;99.90;;;;;;4864527;29;20190;-78
2023/07/04 05:36:15;;;;;;;9.23;3.20;;;14.40;99.90;;;;;;4874705;29;20189;-80
2023/07/04 05:38:42;;;;;;;11.82;3.10;;;14.50;99.90;;;;;;4862650;29;20658;-78
2023/07/04 05:41:13;;;;;;;7.95;3.28;;;14.50;99.90;;;;;;4866504;29;20265;-76
2023/07/04 05:43:41;;;;;;;9.80;3.60;;;14.50;99.90;;;;;;4871864;29;20217;-77
2023/07/04 05:46:08;;;;;;;8.63;3.40;;;14.50;99.90;;;;;;4871895;29;20280;-76
2023/07/04 05:48:35;;;;;;;10.50;3.50;;;14.60;99.90;;;;;;4871102;29;20735;-77
2023/07/04 05:51:03;;;;;;;10.43;3.28;;;14.60;99.90;;;;;;4864216;29;20640;-77
2023/07/04 05:53:31;;;;;;;12.82;3.40;;;14.60;99.90;;;;;;4862221;29;20193;-80
2023/07/04 05:56:21;;;;;;;9.75;3.08;;;14.70;99.90;;;;;;4872469;29;20646;-77
2023/07/04 05:58:49;;;;;;;11.60;3.63;;;14.70;99.90;;;;;;4871103;29;20678;-84
2023/07/04 06:01:20;;;;;;;6.65;2.92;;;14.80;99.90;;;;;;4860130;29;20270;-78
2023/07/04 06:03:46;;;;;;;10.40;3.05;;;14.80;99.90;;;;;;4864754;29;20190;-76
2023/07/04 06:06:26;;;;;;;9.85;2.97;;;14.80;99.90;;;;;;4865083;29;20193;-77
2023/07/04 06:08:54;;;;;;;13.52;2.95;;;14.90;99.90;;;;;;4864639;29;20215;-76
2023/07/04 06:11:21;;;;;;;9.48;2.60;;;14.90;99.90;;;;;;4872836;29;20193;-76
2023/07/04 06:13:47;;;;;;;8.18;2.30;;;15.00;99.90;;;;;;4867677;29;20201;-78
2023/07/04 06:16:13;;;;;;;7.82;2.20;;;15.00;99.90;;;;;;4869540;29;20638;-79
2023/07/04 06:18:39;;;;;;;7.88;2.30;;;15.10;99.90;;;;;;4866241;29;20194;-76
2023/07/04 06:21:19;;;;;;;9.73;2.30;;;15.10;99.90;;;;;;4873717;29;20193;-78
2023/07/04 06:23:45;;;;;;;9.48;1.92;;;15.20;99.90;;;;;;4872363;29;20228;-80
2023/07/04 06:26:12;;;;;;;3.92;1.77;;;15.20;99.90;;;;;;4865264;29;20281;-79
2023/07/04 06:28:40;;;;;;;7.50;1.95;;;15.30;99.90;;;;;;4872217;29;20265;-79
2023/07/04 06:31:15;;;;;;;9.80;2.25;;;15.30;99.90;;;;;;4871673;29;20217;-78
2023/07/04 06:33:42;;;;;;;7.72;1.75;;;15.40;99.90;;;;;;4862888;29;20198;-79
2023/07/04 06:36:09;;;;;;;6.47;1.75;;;15.40;99.90;;;;;;4871073;29;20233;-79
2023/07/04 06:38:35;;;;;;;4.90;1.58;;;15.50;99.90;;;;;;4875392;29;20531;-78
2023/07/04 06:41:12;;;;;;;4.55;1.73;;;15.60;99.90;;;;;;4870059;29;20197;-75
2023/07/04 06:43:43;;;;;;;9.23;1.88;;;15.60;99.90;;;;;;4875678;29;20689;-76
2023/07/04 06:46:19;;;;;;;8.43;2.28;;;15.60;99.90;;;;;;4871344;29;20242;-77
2023/07/04 06:48:47;;;;;;;7.82;1.60;;;15.70;99.90;;;;;;4867928;29;20518;-80
2023/07/04 06:51:13;;;;;;;6.40;1.70;;;15.80;99.90;;;;;;4879041;29;20252;-77
2023/07/04 06:53:41;;;;;;;7.93;2.08;;;15.80;99.90;;;;;;4878233;29;20193;-77
2023/07/04 06:56:08;;;;;;;10.93;1.63;;;15.90;99.90;;;;;;4870141;29;20218;-78
2023/07/04 06:58:36;;;;;;;9.25;1.77;;;15.90;99.90;;;;;;4878181;29;20185;-81
2023/07/04 07:01:02;;;;;;;10.32;1.90;;;16.00;99.90;;;;;;4889609;29;20710;-79
2023/07/04 07:03:29;;;;;;;8.23;2.05;;;16.00;99.90;;;;;;4869569;29;20182;-79
2023/07/04 07:05:55;;;;;;;6.40;1.77;;;16.10;99.90;;;;;;4876450;29;20220;-79
2023/07/04 07:08:20;;;;;;;4.95;1.63;;;16.10;99.90;;;;;;4885233;29;20221;-79
2023/07/04 07:10:58;;;;;;;8.25;2.00;;;16.10;99.90;;;;;;4867288;29;20597;-79
2023/07/04 07:13:24;;;;;;;11.05;1.98;;;16.20;99.90;;;;;;4873248;29;20189;-80
2023/07/04 07:15:51;;;;;;;11.23;1.70;;;16.30;99.90;;;;;;4869981;29;20201;-81
2023/07/04 07:18:17;;;;;;;9.85;1.50;;;16.30;99.90;;;;;;4869069;29;20190;-89
2023/07/04 07:20:43;;;;;;;7.45;1.95;;;16.50;99.90;;;;;;4859806;29;20226;-79
2023/07/04 07:23:09;;;;;;;4.18;1.42;;;16.60;99.90;;;;;;4854118;29;20193;-82
2023/07/04 07:25:36;;;;;;;6.28;1.65;;;16.60;99.90;;;;;;4866500;29;20245;-80
2023/07/04 07:28:02;;;;;;;6.95;1.83;;;16.70;99.90;;;;;;4877038;29;20630;-80
2023/07/04 07:30:28;;;;;;;8.65;2.08;;;16.70;99.90;;;;;;4875582;29;20224;-81
2023/07/04 07:32:54;;;;;;;7.65;1.83;;;16.70;99.90;;;;;;4877468;29;20193;-80
2023/07/04 07:35:19;;;;;;;7.00;1.75;;;16.80;99.90;;;;;;4868633;29;20194;-78
2023/07/04 07:37:45;;;;;;;9.20;1.60;;;16.90;99.90;;;;;;4868383;29;20189;-78
2023/07/04 07:40:13;;;;;;;5.80;1.73;;;17.00;99.90;;;;;;4875011;29;20201;-82
2023/07/04 07:42:38;;;;;;;5.20;1.90;;;17.00;99.90;;;;;;4879494;29;20193;-79
2023/07/04 07:45:05;;;;;;;10.07;1.80;;;17.10;99.90;;;;;;4875407;29;20597;-79
2023/07/04 07:47:30;;;;;;;4.00;1.60;;;17.10;99.90;;;;;;4861304;29;20201;-76
2023/07/04 07:49:56;;;;;;;9.55;1.85;;;17.10;99.90;;;;;;4859473;29;20270;-77
2023/07/04 07:52:22;;;;;;;7.22;1.48;;;17.10;99.90;;;;;;4860170;29;20190;-77
2023/07/04 07:54:48;;;;;;;5.05;1.38;;;17.10;99.90;;;;;;4880113;29;20200;-78
2023/07/04 07:57:14;;;;;;;4.07;1.70;;;17.20;99.90;;;;;;4871119;29;20182;-78
2023/07/04 07:59:40;;;;;;;8.90;1.85;;;17.20;99.90;;;;;;4889269;29;20345;-77
2023/07/04 08:02:13;;;;;;;5.75;1.63;;;17.30;99.90;;;;;;4877380;29;20185;-78
2023/07/04 08:04:38;;;;;;;5.97;1.63;;;17.30;99.90;;;;;;4863516;29;20254;-79
2023/07/04 08:07:07;;;;;;;3.95;1.50;;;17.40;99.90;;;;;;4862139;29;20647;-78
2023/07/04 08:09:33;;;;;;;8.00;1.88;;;17.40;99.90;;;;;;4879310;29;20216;-79
2023/07/04 08:11:59;;;;;;;4.78;1.70;;;17.40;99.90;;;;;;4871540;29;20194;-79
2023/07/04 08:14:25;;;;;;;9.57;2.10;;;17.50;99.90;;;;;;4860128;29;20194;-78
2023/07/04 08:16:53;;;;;;;5.72;1.77;;;17.60;99.90;;;;;;4867114;29;20194;-78
2023/07/04 08:19:23;;;;;;;8.05;2.00;;;17.60;99.90;;;;;;4876258;29;20200;-78
2023/07/04 08:21:49;;;;;;;4.35;1.75;;;17.70;99.90;;;;;;4873104;29;20178;-82
2023/07/04 08:24:16;;;;;;;6.65;1.80;;;17.80;99.90;;;;;;4861112;29;20245;-79
2023/07/04 08:26:44;;;;;;;7.63;1.73;;;17.80;99.90;;;;;;4866758;29;20189;-78
2023/07/04 08:29:11;;;;;;;4.78;1.50;;;17.80;99.90;;;;;;4872620;29;20186;-79
2023/07/04 08:31:38;;;;;;;9.45;1.48;;;17.80;99.90;;;;;;4868150;29;20197;-80
2023/07/04 08:34:05;;;;;;;6.22;1.45;;;17.90;99.90;;;;;;4874908;29;20208;-77
2023/07/04 08:36:32;;;;;;;5.82;1.70;;;17.90;99.90;;;;;;4868425;29;20776;-77
2023/07/04 08:38:58;;;;;;;8.23;1.88;;;18.00;99.90;;;;;;4875246;29;20198;-77
2023/07/04 08:41:53;;;;;;;6.65;1.48;;;18.00;99.90;;;;;;4873176;29;20200;-78
2023/07/04 08:44:21;;;;;;;7.53;1.67;;;18.00;99.90;;;;;;4870837;29;20181;-78
2023/07/04 08:46:50;;;;;;;6.05;1.67;;;18.00;99.90;;;;;;4875012;29;20784;-79
2023/07/04 08:49:28;;;;;;;5.45;1.65;;;18.10;99.90;;;;;;4870830;29;20300;-80
2023/07/04 08:52:02;;;;;;;5.18;1.80;;;18.10;99.90;;;;;;4883331;29;20220;-81
2023/07/04 08:54:28;;;;;;;14.20;2.03;;;18.20;99.90;;;;;;4875306;29;20267;-79
2023/07/04 08:56:59;;;;;;;6.80;1.80;;;18.30;99.90;;;;;;4873635;29;20190;-81
2023/07/04 08:59:41;;;;;;;11.75;1.90;;;18.30;99.90;;;;;;4863487;29;20201;-82
2023/07/04 09:02:28;;;;;;;7.45;1.67;;;18.40;99.90;;;;;;4873139;29;20596;-78
2023/07/04 09:05:29;;;;;;;10.93;2.25;;;18.50;99.90;;;;;;4857976;29;20301;-79
2023/07/04 09:08:17;;;;;;;7.10;1.90;;;18.60;99.90;;;;;;4869564;29;20193;-79
2023/07/04 09:10:49;;;;;;;8.38;1.83;;;18.70;99.90;;;;;;4876070;29;20227;-81
2023/07/04 09:13:21;;;;;;;7.70;1.90;;;18.80;99.90;;;;;;4863973;29;20222;-79
2023/07/04 09:15:47;;;;;;;7.63;2.00;;;18.90;99.90;;;;;;4866339;29;20196;-80
2023/07/04 09:18:38;;;;;;;11.93;2.30;;;19.00;99.90;;;;;;4876820;29;20177;-79
2023/07/04 09:21:19;;;;;;;10.32;2.13;;;19.10;99.90;;;;;;4871879;29;20259;-79
2023/07/04 09:23:47;;;;;;;7.78;2.08;;;19.10;99.90;;;;;;4874027;29;20630;-79
2023/07/04 09:26:17;;;;;;;9.93;2.13;;;19.10;99.90;;;;;;4878287;29;20201;-79
2023/07/04 09:28:45;;;;;;;9.10;2.08;;;19.10;99.90;;;;;;4878280;29;20216;-79
2023/07/04 09:31:18;;;;;;;8.90;2.35;;;19.10;99.90;;;;;;4873636;29;20678;-80
2023/07/04 09:33:47;;;;;;;13.18;2.20;;;19.20;99.90;;;;;;4879141;29;20680;-80
2023/07/04 09:36:13;;;;;;;9.27;2.22;;;19.20;99.90;;;;;;4875331;29;20193;-80
2023/07/04 09:38:56;;;;;;;13.88;2.85;;;19.20;99.90;;;;;;4869850;29;20245;-79
2023/07/04 09:41:25;;;;;;;10.38;2.50;;;19.30;99.90;;;;;;4878445;29;20604;-79
2023/07/04 09:43:56;;;;;;;10.70;2.33;;;19.20;99.90;;;;;;4879081;29;20264;-78
2023/07/04 09:46:25;;;;;;;8.48;1.80;;;19.30;99.90;;;;;;4882389;29;20701;-78
2023/07/04 09:48:52;;;;;;;10.63;2.38;;;19.30;99.90;;;;;;4882310;29;20196;-79
2023/07/04 09:51:18;;;;;;;15.07;2.50;;;19.30;99.90;;;;;;4882185;29;20739;-79
2023/07/04 09:53:44;;;;;;;7.85;2.17;;;19.30;99.90;;;;;;4876968;29;20268;-80
2023/07/04 09:56:11;;;;;;;8.70;2.47;;;19.30;99.90;;;;;;4872515;29;21157;-79
2023/07/04 09:58:37;;;;;;;10.30;2.40;;;19.40;99.90;;;;;;4880456;29;20221;-82
2023/07/04 10:01:14;;;;;;;11.50;2.20;;;19.40;99.90;;;;;;4883247;29;22264;-80
2023/07/04 10:03:42;;;;;;;8.95;2.20;;;19.40;99.90;;;;;;4896086;29;20809;-80
2023/07/04 10:06:10;;;;;;;13.13;2.65;;;19.40;99.90;;;;;;4893182;29;20185;-81
2023/07/04 10:08:53;;;;;;;9.18;2.00;;;19.40;99.90;;;;;;4880967;29;20193;-81
2023/07/04 10:11:29;;;;;;;14.32;6.20;;;19.50;99.90;;;;;;4867624;29;20222;-83
2023/07/04 10:14:00;;;;;;;9.15;2.00;;;19.60;99.90;;;;;;4877421;29;20195;-81
2023/07/04 10:16:26;;;;;;;9.43;2.35;;;19.60;99.90;;;;;;4872249;29;20190;-83
2023/07/04 10:19:12;;;;;;;6.90;1.98;;;19.70;99.90;;;;;;4861716;29;20197;-85
2023/07/04 10:21:46;;;;;;;9.02;2.00;;;19.70;99.90;;;;;;4863472;29;20282;-83
2023/07/04 10:24:17;;;;;;;5.88;1.80;;;19.80;99.90;;;;;;4873225;29;20936;-83
2023/07/04 10:26:48;;;;;;;7.65;2.05;;;19.90;99.90;;;;;;4872368;29;20194;-84
2023/07/04 10:29:16;;;;;;;7.03;1.85;;;20.00;99.90;;;;;;4861675;29;20198;-82
2023/07/04 10:31:43;;;;;;;6.35;1.95;;;20.10;99.90;;;;;;4873843;29;20193;-84
2023/07/04 10:34:12;;;;;;;6.78;2.00;;;20.20;99.90;;;;;;4863747;29;20193;-83
2023/07/04 10:36:39;;;;;;;7.32;1.73;;;20.20;99.90;;;;;;4887060;29;20196;-84
2023/07/04 10:39:10;;;;;;;7.70;2.00;;;20.30;99.90;;;;;;4864452;29;20665;-81
2023/07/04 10:41:38;;;;;;;9.38;2.30;;;20.30;99.70;;;;;;4895792;29;20274;-83
2023/07/04 10:44:22;;;;;;;8.85;2.00;;;20.30;99.60;;;;;;4878896;29;20186;-84
2023/07/04 10:46:58;;;;;;;5.15;1.83;;;20.30;99.60;;;;;;4876686;29;20217;-82
2023/07/04 10:49:28;;;;;;;9.10;1.80;;;20.40;99.30;;;;;;4880174;29;20313;-84
2023/07/04 10:52:01;;;;;;;8.82;1.92;;;20.40;99.00;;;;;;4881245;29;20190;-82
2023/07/04 10:54:29;;;;;;;8.07;1.80;;;20.30;98.60;;;;;;4876594;29;20193;-83
2023/07/04 10:57:06;;;;;;;8.55;1.88;;;20.30;98.40;;;;;;4858389;29;20231;-82
2023/07/04 10:59:35;;;;;;;7.93;2.03;;;20.30;98.20;;;;;;4861658;29;20193;-84
2023/07/04 11:02:30;;;;;;;8.73;2.10;;;20.40;98.10;;;;;;4861989;29;20194;-83
2023/07/04 11:05:06;;;;;;;9.30;1.77;;;20.50;97.90;;;;;;4865468;29;20200;-84
2023/07/04 11:07:35;;;;;;;9.35;1.92;;;20.50;97.90;;;;;;4875187;29;20189;-82
2023/07/04 11:10:04;;;;;;;12.02;2.00;;;20.40;97.20;;;;;;4873315;29;20257;-85
2023/07/04 11:12:37;;;;;;;11.55;2.20;;;20.40;97.20;;;;;;4872798;29;20211;-83
2023/07/04 11:15:21;;;;;;;11.50;2.40;;;20.40;97.10;;;;;;4874948;29;20245;-85
2023/07/04 11:17:53;;;;;;;11.35;2.17;;;20.30;97.10;;;;;;4861670;29;20208;-83
2023/07/04 11:20:33;;;;;;;8.90;2.10;;;20.30;97.30;;;;;;4861500;29;20600;-84
2023/07/04 11:23:00;;;;;;;9.20;2.10;;;20.30;97.60;;;;;;4863544;29;20280;-84
2023/07/04 11:25:53;;;;;;;8.05;2.28;;;20.40;97.50;;;;;;4879704;29;20185;-83
2023/07/04 11:28:39;;;;;;;6.25;1.88;;;20.40;97.20;;;;;;4881099;29;20245;-83
2023/07/04 11:31:19;;;;;;;8.55;2.20;;;20.40;96.90;;;;;;4864168;29;20213;-83
2023/07/04 11:33:57;;;;;;;8.68;2.35;;;20.50;96.90;;;;;;4880160;29;20188;-83
2023/07/04 11:36:35;;;;;;;6.32;1.98;;;20.50;96.30;;;;;;4873789;29;20197;-82
2023/07/04 11:39:18;;;;;;;10.55;2.10;;;20.60;96.00;;;;;;4880585;29;20270;-83
2023/07/04 11:41:44;;;;;;;8.50;2.45;;;20.70;95.60;;;;;;4879115;29;20196;-82
2023/07/04 11:44:29;;;;;;;12.30;2.00;;;20.80;95.20;;;;;;4879453;29;20185;-82
2023/07/04 11:47:03;;;;;;;11.80;2.30;;;20.80;95.00;;;;;;4856980;29;20256;-82
2023/07/04 11:49:31;;;;;;;8.13;2.08;;;20.90;94.90;;;;;;4890663;29;20237;-82
2023/07/04 11:52:17;;;;;;;7.72;2.15;;;21.00;94.30;;;;;;4863157;29;20190;-84
2023/07/04 11:54:44;;;;;;;12.07;6.38;;;21.10;94.20;;;;;;4860455;29;20234;-83
2023/07/04 11:57:10;;;;;;;10.93;3.70;;;21.20;94.00;;;;;;4870407;29;20202;-83
2023/07/04 11:59:44;;;;;;;12.90;5.20;;;21.30;93.70;;;;;;4879776;29;20208;-83
2023/07/04 12:02:24;;;;;;;14.43;7.40;;;21.30;93.60;;;;;;4880635;29;20213;-83
2023/07/04 12:04:50;;;;;;;9.82;4.25;;;21.40;93.40;;;;;;4880439;29;20268;-83
2023/07/04 12:07:35;;;;;;;7.10;1.95;;;21.50;93.00;;;;;;4863811;29;20249;-83
2023/07/04 12:10:00;;;;;;;7.78;1.95;;;21.60;92.40;;;;;;4895013;29;20244;-83
2023/07/04 12:12:29;;;;;;;5.72;1.77;;;21.70;91.90;;;;;;4879324;29;20245;-84
2023/07/04 12:15:10;;;;;;;5.75;1.63;;;21.80;91.40;;;;;;4874621;29;20182;-83
2023/07/04 12:17:42;;;;;;;5.88;1.60;;;21.80;91.00;;;;;;4863181;29;20619;-82
2023/07/04 12:20:14;;;;;;;8.85;2.20;;;21.90;90.20;;;;;;4861163;29;20307;-83
2023/07/04 12:22:55;;;;;;;8.73;1.90;;;21.90;88.80;;;;;;4860082;29;20217;-84
2023/07/04 12:25:27;;;;;;;11.77;2.40;;;21.90;88.20;;;;;;4872694;29;20212;-84
2023/07/04 12:27:56;;;;;;;7.68;1.90;;;21.90;88.60;;;;;;4878733;29;20213;-83
2023/07/04 12:30:22;;;;;;;5.65;1.70;;;22.00;89.70;;;;;;4878379;29;20219;-84
2023/07/04 12:32:52;;;;;;;7.72;1.95;;;22.10;89.60;;;;;;4893640;29;20197;-83
2023/07/04 12:35:28;;;;;;;7.97;2.00;;;22.10;88.80;;;;;;4878211;29;20181;-84
2023/07/04 12:37:57;;;;;;;5.30;1.98;;;22.00;88.90;;;;;;4893811;29;20196;-83
2023/07/04 12:40:28;;;;;;;10.85;2.15;;;22.00;88.30;;;;;;4879916;29;20221;-84
2023/07/04 12:43:00;;;;;;;7.72;1.63;;;22.00;88.30;;;;;;4878313;29;20522;-82
2023/07/04 12:45:27;;;;;;;11.40;3.78;;;22.00;88.80;;;;;;4875683;29;20236;-84
2023/07/04 12:47:58;;;;;;;8.10;2.78;;;22.00;88.20;;;;;;4859249;29;20246;-86
2023/07/04 12:50:25;;;;;;;9.75;2.50;;;22.10;88.10;;;;;;4871699;29;20232;-83
2023/07/04 12:52:51;;;;;;;11.73;4.38;;;22.20;87.80;;;;;;4867839;29;20623;-84
2023/07/04 12:55:43;;;;;;;10.32;2.25;;;22.20;87.10;;;;;;4862596;29;20653;-85
2023/07/04 12:58:13;;;;;;;10.32;2.38;;;22.20;87.10;;;;;;4875626;29;20173;-85